createdAt,value
2023-03-27T00:00:40.754Z,-7.51
2023-03-27T00:03:29.224Z,-7.81
2023-03-27T00:06:30.870Z,-7.65
2023-03-27T00:09:17.733Z,-7.63
2023-03-27T00:12:04.579Z,-7.63
2023-03-27T00:14:51.693Z,-7.68
2023-03-27T00:17:38.645Z,-7.60
2023-03-27T00:20:25.866Z,-7.62
2023-03-27T00:23:19.785Z,-7.63
2023-03-27T00:26:10.423Z,-8.05
2023-03-27T00:28:57.719Z,-7.66
2023-03-27T00:31:44.647Z,-8.20
2023-03-27T00:34:31.628Z,-7.70
2023-03-27T00:37:18.712Z,-7.71
2023-03-27T00:40:05.757Z,-7.72
2023-03-27T00:42:52.663Z,-7.75
2023-03-27T00:45:46.482Z,-7.76
2023-03-27T00:48:34.410Z,-7.77
2023-03-27T00:51:22.483Z,-8.17
2023-03-27T00:54:11.374Z,-8.01
2023-03-27T00:56:58.804Z,-7.97
2023-03-27T00:59:51.530Z,-7.83
2023-03-27T01:02:39.327Z,-7.85
2023-03-27T01:05:28.002Z,-7.86
2023-03-27T01:08:15.807Z,-7.88
2023-03-27T01:11:44.100Z,-7.90
2023-03-27T01:15:02.139Z,-7.90
2023-03-27T01:18:17.845Z,-7.92
2023-03-27T01:21:49.627Z,-7.95
2023-03-27T01:24:42.586Z,-7.96
2023-03-27T01:28:11.253Z,-7.98
2023-03-27T01:31:04.019Z,-8.00
2023-03-27T01:34:09.721Z,-8.01
2023-03-27T01:36:56.658Z,-8.03
2023-03-27T01:39:49.498Z,-8.03
2023-03-27T01:42:50.555Z,-8.04
2023-03-27T01:45:43.929Z,-8.12
2023-03-27T01:48:49.162Z,-8.14
2023-03-27T01:51:56.376Z,-8.08
2023-03-27T01:54:51.589Z,-8.09
2023-03-27T01:57:53.214Z,-8.10
2023-03-27T02:00:52.037Z,-8.11
2023-03-27T02:04:01.014Z,-8.14
2023-03-27T02:06:50.993Z,-8.15
2023-03-27T02:09:58.027Z,-8.16
2023-03-27T02:12:52.597Z,-8.17
2023-03-27T02:15:41.968Z,-8.18
2023-03-27T02:18:54.213Z,-8.18
2023-03-27T02:21:41.227Z,-8.26
2023-03-27T02:24:28.123Z,-8.42
2023-03-27T02:27:41.626Z,-8.20
2023-03-27T02:30:47.049Z,-8.21
2023-03-27T02:34:13.571Z,-8.22
2023-03-27T02:37:24.974Z,-8.23
2023-03-27T02:41:08.499Z,-8.37
2023-03-27T02:44:30.559Z,-8.24
2023-03-27T02:47:21.302Z,-8.24
2023-03-27T02:50:16.135Z,-8.33
2023-03-27T02:53:06.984Z,-8.42
2023-03-27T02:56:06.144Z,-8.46
2023-03-27T02:59:04.210Z,-8.26
2023-03-27T03:01:58.434Z,-8.35
2023-03-27T03:04:59.648Z,-8.29
2023-03-27T03:07:49.532Z,-8.31
2023-03-27T03:10:37.086Z,-8.27
2023-03-27T03:13:23.962Z,-8.36
2023-03-27T03:16:11.237Z,-8.29
2023-03-27T03:19:00.041Z,-8.28
2023-03-27T03:21:47.011Z,-8.28
2023-03-27T03:24:33.886Z,-8.32
2023-03-27T03:27:21.350Z,-8.34
2023-03-27T03:30:31.689Z,-8.33
2023-03-27T03:33:25.182Z,-8.27
2023-03-27T03:36:12.158Z,-8.26
2023-03-27T03:38:59.690Z,-8.25
2023-03-27T03:41:46.613Z,-8.33
2023-03-27T03:44:33.548Z,-8.25
2023-03-27T03:47:28.839Z,-8.25
2023-03-27T03:50:15.761Z,-8.26
2023-03-27T03:53:02.728Z,-8.30
2023-03-27T03:55:50.061Z,-8.26
2023-03-27T03:58:37.114Z,-8.27
2023-03-27T04:01:25.276Z,-8.72
2023-03-27T04:04:17.049Z,-8.35
2023-03-27T04:07:24.151Z,-8.29
2023-03-27T04:10:14.520Z,-8.29
2023-03-27T04:13:06.009Z,-8.30
2023-03-27T04:15:57.471Z,-8.58
2023-03-27T04:18:51.045Z,-8.32
2023-03-27T04:21:40.147Z,-8.42
2023-03-27T04:24:27.216Z,-8.40
2023-03-27T04:27:14.129Z,-8.47
2023-03-27T04:30:44.108Z,-8.63
2023-03-27T04:34:06.484Z,-8.41
2023-03-27T04:37:24.167Z,-8.49
2023-03-27T04:40:44.099Z,-8.39
2023-03-27T04:43:32.902Z,-8.40
2023-03-27T04:46:20.107Z,-8.38
2023-03-27T04:49:12.636Z,-8.60
2023-03-27T04:52:07.551Z,-8.41
2023-03-27T04:54:55.429Z,-8.38
2023-03-27T04:57:45.043Z,-8.40
2023-03-27T05:00:38.834Z,-8.40
2023-03-27T05:03:48.900Z,-8.41
2023-03-27T05:06:43.700Z,-8.56
2023-03-27T05:09:35.042Z,-8.39
2023-03-27T05:12:22.140Z,-8.38
2023-03-27T05:15:12.618Z,-8.54
2023-03-27T05:18:04.995Z,-8.36
2023-03-27T05:20:52.017Z,-8.58
2023-03-27T05:23:38.939Z,-8.35
2023-03-27T05:26:27.026Z,-8.34
2023-03-27T05:29:17.476Z,-8.48
2023-03-27T05:32:06.623Z,-8.43
2023-03-27T05:35:02.527Z,-8.29
2023-03-27T05:37:55.960Z,-8.28
2023-03-27T05:41:05.414Z,-8.25
2023-03-27T05:43:56.010Z,-8.62
2023-03-27T05:46:43.725Z,-8.22
2023-03-27T05:49:37.273Z,-8.20
2023-03-27T05:52:31.561Z,-8.16
2023-03-27T05:55:18.548Z,-8.12
2023-03-27T05:58:05.611Z,-8.10
2023-03-27T06:00:52.604Z,-8.08
2023-03-27T06:03:41.375Z,-8.08
2023-03-27T06:06:35.889Z,-8.35
2023-03-27T06:09:23.336Z,-8.16
2023-03-27T06:12:29.183Z,-8.17
2023-03-27T06:15:25.824Z,-7.95
2023-03-27T06:18:35.978Z,-7.94
2023-03-27T06:21:23.629Z,-7.93
2023-03-27T06:24:17.363Z,-7.98
2023-03-27T06:27:04.466Z,-7.89
2023-03-27T06:29:54.569Z,-8.16
2023-03-27T06:32:41.648Z,-7.94
2023-03-27T06:35:31.203Z,-7.83
2023-03-27T06:38:31.105Z,-8.00
2023-03-27T06:41:18.715Z,-8.39
2023-03-27T06:44:24.636Z,-7.76
2023-03-27T06:47:34.582Z,-7.78
2023-03-27T06:50:53.526Z,-8.04
2023-03-27T06:53:40.851Z,-7.68
2023-03-27T06:56:28.468Z,-7.64
2023-03-27T06:59:47.677Z,-7.62
2023-03-27T07:02:40.164Z,-8.14
2023-03-27T07:05:27.847Z,-7.84
2023-03-27T07:08:23.328Z,-7.52
2023-03-27T07:11:15.284Z,-7.48
2023-03-27T07:14:13.878Z,-7.44
2023-03-27T07:17:00.953Z,-7.43
2023-03-27T07:20:00.265Z,-7.34
2023-03-27T07:22:48.048Z,-7.29
2023-03-27T07:26:00.895Z,-7.24
2023-03-27T07:29:10.605Z,-7.18
2023-03-27T07:32:01.554Z,-7.12
2023-03-27T07:34:59.446Z,-7.13
2023-03-27T07:38:05.862Z,-7.00
2023-03-27T07:40:55.702Z,-6.93
2023-03-27T07:43:48.533Z,-6.87
2023-03-27T07:46:35.584Z,-6.81
2023-03-27T07:49:40.187Z,-6.74
2023-03-27T07:52:32.963Z,-6.69
2023-03-27T07:55:24.177Z,-6.67
2023-03-27T07:58:20.537Z,-6.55
2023-03-27T08:01:09.364Z,-6.49
2023-03-27T08:03:56.569Z,-6.42
2023-03-27T08:06:44.105Z,-6.69
2023-03-27T08:09:37.715Z,-6.29
2023-03-27T08:12:25.263Z,-6.23
2023-03-27T08:15:18.111Z,-6.16
2023-03-27T08:18:05.853Z,-6.37
2023-03-27T08:20:52.757Z,-6.08
2023-03-27T08:23:42.297Z,-6.32
2023-03-27T08:26:58.808Z,-5.88
2023-03-27T08:29:46.474Z,-5.91
2023-03-27T08:32:33.644Z,-5.77
2023-03-27T08:35:26.408Z,-5.70
2023-03-27T08:38:25.824Z,-5.73
2023-03-27T08:41:25.918Z,-5.55
2023-03-27T08:44:23.542Z,-5.85
2023-03-27T08:47:31.174Z,-5.47
2023-03-27T08:50:35.473Z,-5.35
2023-03-27T08:54:10.580Z,-5.25
2023-03-27T08:56:57.613Z,-5.17
2023-03-27T08:59:48.510Z,-5.11
2023-03-27T09:03:10.292Z,-5.03
2023-03-27T09:06:07.253Z,-5.11
2023-03-27T09:09:13.093Z,-4.88
2023-03-27T09:12:10.451Z,-4.78
2023-03-27T09:15:54.591Z,-4.70
2023-03-27T09:18:46.444Z,-4.62
2023-03-27T09:21:51.366Z,-4.55
2023-03-27T09:25:01.118Z,-4.45
2023-03-27T09:28:32.959Z,-4.35
2023-03-27T09:32:06.261Z,-4.25
2023-03-27T09:34:55.698Z,-4.16
2023-03-27T09:37:42.600Z,-4.08
2023-03-27T09:40:41.893Z,-3.98
2023-03-27T09:43:36.460Z,-3.87
2023-03-27T09:46:24.373Z,-3.75
2023-03-27T09:49:24.962Z,-3.66
2023-03-27T09:52:16.226Z,-3.53
2023-03-27T09:55:15.514Z,-3.57
2023-03-27T09:58:03.279Z,-3.28
2023-03-27T10:00:54.954Z,-3.22
2023-03-27T10:03:42.092Z,-3.13
2023-03-27T10:06:33.972Z,-2.84
2023-03-27T10:09:41.548Z,-2.68
2023-03-27T10:12:39.374Z,-2.50
2023-03-27T10:15:50.110Z,-2.39
2023-03-27T10:18:47.971Z,-2.17
2023-03-27T10:21:45.801Z,-2.04
2023-03-27T10:25:07.388Z,-1.86
2023-03-27T10:28:12.972Z,-1.72
2023-03-27T10:31:22.726Z,-1.58
2023-03-27T10:34:14.694Z,-1.48
2023-03-27T10:38:00.400Z,-1.36
2023-03-27T17:58:34.554Z,-2.25
2023-03-27T18:01:12.681Z,-2.28
2023-03-27T18:03:39.938Z,-2.50
2023-03-27T18:06:07.079Z,-2.50
2023-03-27T18:08:34.359Z,-2.46
2023-03-27T18:11:01.586Z,-2.47
2023-03-27T18:13:30.108Z,-2.46
2023-03-27T18:15:58.368Z,-2.60
2023-03-27T18:18:26.054Z,-2.50
2023-03-27T18:20:53.903Z,-2.54
2023-03-27T18:23:22.004Z,-2.54
2023-03-27T18:25:49.082Z,-2.58
2023-03-27T18:28:16.411Z,-2.60
2023-03-27T18:30:44.262Z,-2.65
2023-03-27T18:33:11.691Z,-2.69
2023-03-27T18:35:38.951Z,-2.78
2023-03-27T18:38:06.265Z,-2.77
2023-03-27T18:40:33.608Z,-2.81
2023-03-27T18:43:00.969Z,-2.86
2023-03-27T18:45:27.949Z,-2.90
2023-03-27T18:47:54.972Z,-3.03
2023-03-27T18:50:21.865Z,-3.25
2023-03-27T18:52:48.699Z,-3.02
2023-03-27T18:55:15.992Z,-3.03
2023-03-27T18:57:42.980Z,-3.06
2023-03-27T19:00:17.605Z,-3.08
2023-03-27T19:02:45.492Z,-3.10
2023-03-27T19:05:13.134Z,-3.16
2023-03-27T19:07:59.913Z,-3.20
2023-03-27T19:10:46.739Z,-3.25
2023-03-27T19:13:37.443Z,-3.59
2023-03-27T19:16:56.632Z,-3.31
2023-03-27T19:20:03.783Z,-3.55
2023-03-27T19:22:54.552Z,-3.51
2023-03-27T19:25:47.997Z,-3.48
2023-03-27T19:28:35.728Z,-3.49
2023-03-27T19:31:26.973Z,-3.52
2023-03-27T19:34:13.911Z,-3.57
2023-03-27T19:37:00.693Z,-3.69
2023-03-27T19:39:47.796Z,-3.64
2023-03-27T19:42:34.795Z,-4.03
2023-03-27T19:45:21.703Z,-3.78
2023-03-27T19:48:08.646Z,-3.74
2023-03-27T19:50:55.904Z,-3.76
2023-03-27T19:53:43.073Z,-4.23
2023-03-27T19:56:29.958Z,-3.83
2023-03-27T19:59:29.903Z,-3.85
2023-03-27T20:02:17.510Z,-3.89
2023-03-27T20:05:04.549Z,-3.93
2023-03-27T20:07:51.405Z,-3.96
2023-03-27T20:10:38.313Z,-3.99
2023-03-27T20:13:25.164Z,-4.04
2023-03-27T20:16:12.904Z,-4.16
2023-03-27T20:19:01.357Z,-4.07
2023-03-27T20:21:48.780Z,-4.24
2023-03-27T20:24:36.102Z,-4.14
2023-03-27T20:27:23.033Z,-4.21
2023-03-27T20:30:09.927Z,-4.25
2023-03-27T20:32:56.817Z,-4.30
2023-03-27T20:35:44.558Z,-4.28
2023-03-27T20:38:31.750Z,-4.63
2023-03-27T20:41:19.131Z,-4.32
2023-03-27T20:44:05.989Z,-4.35
2023-03-27T20:46:54.544Z,-4.36
2023-03-27T20:49:45.351Z,-4.44
2023-03-27T20:52:35.575Z,-4.63
2023-03-27T20:55:32.902Z,-4.44
2023-03-27T20:58:23.015Z,-4.47
2023-03-27T21:01:11.357Z,-4.49
2023-03-27T21:04:00.446Z,-4.58
2023-03-27T21:06:47.370Z,-4.55
2023-03-27T21:09:34.244Z,-4.58
2023-03-27T21:12:21.218Z,-4.60
2023-03-27T21:15:08.102Z,-4.63
2023-03-27T21:17:55.062Z,-4.66
2023-03-27T21:20:45.873Z,-4.69
2023-03-27T21:23:32.665Z,-4.71
2023-03-27T21:26:19.692Z,-5.16
2023-03-27T21:29:06.590Z,-4.84
2023-03-27T21:31:53.524Z,-4.76
2023-03-27T21:34:40.481Z,-4.78
2023-03-27T21:37:27.444Z,-4.80
2023-03-27T21:40:14.274Z,-4.82
2023-03-27T21:43:01.309Z,-4.84
2023-03-27T21:45:48.192Z,-4.87
2023-03-27T21:48:35.596Z,-4.88
2023-03-27T21:51:25.519Z,-5.25
2023-03-27T21:54:12.702Z,-4.92
2023-03-27T21:56:59.622Z,-5.16
2023-03-27T21:59:46.844Z,-5.04
2023-03-27T22:02:33.774Z,-4.96
2023-03-27T22:05:20.710Z,-4.97
2023-03-27T22:08:07.732Z,-5.01
2023-03-27T22:10:55.244Z,-5.02
2023-03-27T22:13:42.045Z,-5.04
2023-03-27T22:16:32.307Z,-5.04
2023-03-27T22:19:19.198Z,-5.10
2023-03-27T22:22:06.257Z,-5.18
2023-03-27T22:24:53.874Z,-5.10
2023-03-27T22:27:40.913Z,-5.09
2023-03-27T22:30:28.232Z,-5.10
2023-03-27T22:33:15.257Z,-5.26
2023-03-27T22:36:08.243Z,-5.13
2023-03-27T22:38:56.002Z,-5.14
2023-03-27T22:41:42.979Z,-5.16
2023-03-27T22:44:29.870Z,-5.16
2023-03-27T22:47:18.272Z,-5.28
2023-03-27T22:50:05.299Z,-5.28
2023-03-27T22:52:52.249Z,-5.27
2023-03-27T22:55:39.212Z,-5.32
2023-03-27T22:58:26.556Z,-5.21
2023-03-27T23:01:14.932Z,-5.24
2023-03-27T23:04:02.002Z,-5.30
2023-03-27T23:06:49.033Z,-5.23
2023-03-27T23:09:36.140Z,-5.24
2023-03-27T23:12:23.213Z,-5.26
2023-03-27T23:15:10.161Z,-5.26
2023-03-27T23:17:57.067Z,-5.63
2023-03-27T23:20:43.990Z,-5.28
2023-03-27T23:23:31.035Z,-5.29
2023-03-27T23:26:18.638Z,-5.29
2023-03-27T23:29:05.512Z,-5.30
2023-03-27T23:31:52.516Z,-5.30
2023-03-27T23:34:39.555Z,-5.32
2023-03-27T23:37:26.387Z,-5.61
2023-03-27T23:40:13.267Z,-5.42
2023-03-27T23:43:00.222Z,-5.54
2023-03-27T23:45:47.091Z,-5.46
2023-03-27T23:48:34.093Z,-5.36
2023-03-27T23:51:21.049Z,-5.38
2023-03-27T23:54:07.943Z,-5.38
2023-03-27T23:56:54.919Z,-5.39
2023-03-27T23:59:41.803Z,-5.40
